Vilhelmina, Sweden

10:07 AM CEST on July 29, 2016 (GMT +0200)
Storuman | | Change Station

Elev 915 ft 64.96 °N, 17.70 °E | Updated 17 minutes ago

Mostly Cloudy
Mostly Cloudy
61 °F
Feels Like 61 °F
N
2
Wind Variable Wind from Variable

Today
High -- | Low -- °F
--% Chance of Precip.
Yesterday
High -- | Low -- °F
Precip. -- in
Pressure 29.77 in
Visibility 6.2 miles
Clouds Few 1300 ft
Mostly Cloudy 3100 ft
Dew Point 54 °F
Humidity 77%
Rainfall 0.00 in
Snow Depth Not available.
3:45 AM 10:09 PM
Waning Crescent, 24% visible
METAR ESUD 290750Z AUTO VRB02KT 9999 FEW013/// BKN031/// 16/12 Q1008
Pressure 29.77 in
Visibility 6.2 miles
Clouds Few 1300 ft
Mostly Cloudy 3100 ft
Dew Point 54 °F
Humidity 77%
Rainfall 0.00 in
Snow Depth Not available.
3:45 AM 10:09 PM
Waning Crescent, 24% visible
METAR ESUD 290750Z AUTO VRB02KT 9999 FEW013/// BKN031/// 16/12 Q1008

10-Day Weather Forecast

×

Almanac

Astronomy

Jul. 29, 2016 Rise Set
Actual Time
Civil Twilight
Nautical Twilight
Astronomical Twilight
Moon
Length of Visible Light
Length of Day
Tomorrow will be .
, % of the Moon is Illuminated

Today's Extremes

Country Highs Country Lows

Community

WunderPhotos

Upload Photos

1,928,300 photos uploaded!

WunderBlog® & News

Nearby

Air Quality

  Air Quality AQ Index Pollutant
Not available.

Snow Depth

Station Depth Elevation

Earthquake Activity

City Distance Mag. Time & Date
Minimum magnitude displayed is 2.5.

Coastal Water Temperatures

Place Temperature

Stations

Nearby Weather Stations

Station Location Temp. Windchill Dew Point Humidity Wind Precip. Elev Updated Type